sensor_id;sensor_type;location;lat;lon;timestamp;P1;durP1;ratioP1;P2;durP2;ratioP2
76320;SDS011;65132;52.088;5.402;2022-12-29T00:01:38;3.20;;;1.80;;
76320;SDS011;65132;52.088;5.402;2022-12-29T00:04:04;3.08;;;1.90;;
76320;SDS011;65132;52.088;5.402;2022-12-29T00:06:39;2.88;;;1.48;;
76320;SDS011;65132;52.088;5.402;2022-12-29T00:09:06;4.45;;;1.75;;
76320;SDS011;65132;52.088;5.402;2022-12-29T00:11:32;2.80;;;1.40;;
76320;SDS011;65132;52.088;5.402;2022-12-29T00:13:59;2.67;;;1.65;;
76320;SDS011;65132;52.088;5.402;2022-12-29T00:16:25;3.33;;;2.05;;
76320;SDS011;65132;52.088;5.402;2022-12-29T00:18:53;2.70;;;1.20;;
76320;SDS011;65132;52.088;5.402;2022-12-29T00:21:20;3.17;;;1.40;;
76320;SDS011;65132;52.088;5.402;2022-12-29T00:23:48;4.35;;;2.10;;
76320;SDS011;65132;52.088;5.402;2022-12-29T00:26:15;2.70;;;1.50;;
76320;SDS011;65132;52.088;5.402;2022-12-29T00:28:43;2.50;;;1.25;;
76320;SDS011;65132;52.088;5.402;2022-12-29T00:31:11;2.53;;;1.70;;
76320;SDS011;65132;52.088;5.402;2022-12-29T00:33:38;3.25;;;1.58;;
76320;SDS011;65132;52.088;5.402;2022-12-29T00:36:05;3.40;;;1.75;;
76320;SDS011;65132;52.088;5.402;2022-12-29T00:38:38;3.15;;;1.02;;
76320;SDS011;65132;52.088;5.402;2022-12-29T00:41:09;2.25;;;1.00;;
76320;SDS011;65132;52.088;5.402;2022-12-29T00:43:36;3.10;;;1.67;;
76320;SDS011;65132;52.088;5.402;2022-12-29T00:46:02;2.28;;;1.13;;
76320;SDS011;65132;52.088;5.402;2022-12-29T00:48:28;2.65;;;1.30;;
76320;SDS011;65132;52.088;5.402;2022-12-29T00:50:55;4.00;;;0.85;;
76320;SDS011;65132;52.088;5.402;2022-12-29T00:53:22;2.85;;;1.38;;
76320;SDS011;65132;52.088;5.402;2022-12-29T00:55:48;2.13;;;1.27;;
76320;SDS011;65132;52.088;5.402;2022-12-29T00:58:15;2.67;;;0.80;;
76320;SDS011;65132;52.088;5.402;2022-12-29T01:00:43;3.92;;;1.48;;
76320;SDS011;65132;52.088;5.402;2022-12-29T01:03:09;2.40;;;1.20;;
76320;SDS011;65132;52.088;5.402;2022-12-29T01:05:36;1.98;;;0.85;;
76320;SDS011;65132;52.088;5.402;2022-12-29T01:08:02;2.50;;;0.85;;
76320;SDS011;65132;52.088;5.402;2022-12-29T01:10:29;3.25;;;1.20;;
76320;SDS011;65132;52.088;5.402;2022-12-29T01:12:55;2.83;;;1.20;;
76320;SDS011;65132;52.088;5.402;2022-12-29T01:15:22;2.05;;;0.80;;
76320;SDS011;65132;52.088;5.402;2022-12-29T01:17:48;2.38;;;1.23;;
76320;SDS011;65132;52.088;5.402;2022-12-29T01:20:14;2.15;;;1.20;;
76320;SDS011;65132;52.088;5.402;2022-12-29T01:22:41;3.08;;;1.00;;
76320;SDS011;65132;52.088;5.402;2022-12-29T01:25:08;3.03;;;1.23;;
76320;SDS011;65132;52.088;5.402;2022-12-29T01:27:34;2.03;;;0.73;;
76320;SDS011;65132;52.088;5.402;2022-12-29T01:30:01;3.03;;;1.20;;
76320;SDS011;65132;52.088;5.402;2022-12-29T01:32:27;2.25;;;0.90;;
76320;SDS011;65132;52.088;5.402;2022-12-29T01:34:54;3.33;;;0.98;;
76320;SDS011;65132;52.088;5.402;2022-12-29T01:37:21;2.75;;;0.80;;
76320;SDS011;65132;52.088;5.402;2022-12-29T01:39:47;3.63;;;1.17;;
76320;SDS011;65132;52.088;5.402;2022-12-29T01:42:18;2.30;;;1.30;;
76320;SDS011;65132;52.088;5.402;2022-12-29T01:44:55;1.92;;;0.95;;
76320;SDS011;65132;52.088;5.402;2022-12-29T01:47:28;2.95;;;1.25;;
76320;SDS011;65132;52.088;5.402;2022-12-29T01:50:21;3.25;;;1.30;;
76320;SDS011;65132;52.088;5.402;2022-12-29T01:53:03;2.25;;;1.20;;
76320;SDS011;65132;52.088;5.402;2022-12-29T01:55:42;2.40;;;0.88;;
76320;SDS011;65132;52.088;5.402;2022-12-29T01:58:12;3.55;;;1.48;;
76320;SDS011;65132;52.088;5.402;2022-12-29T02:00:41;3.13;;;1.20;;
76320;SDS011;65132;52.088;5.402;2022-12-29T02:03:08;3.28;;;1.35;;
76320;SDS011;65132;52.088;5.402;2022-12-29T02:08:09;3.35;;;1.50;;
76320;SDS011;65132;52.088;5.402;2022-12-29T02:10:37;3.33;;;1.40;;
76320;SDS011;65132;52.088;5.402;2022-12-29T02:13:05;3.28;;;1.20;;
76320;SDS011;65132;52.088;5.402;2022-12-29T02:15:42;3.28;;;0.85;;
76320;SDS011;65132;52.088;5.402;2022-12-29T02:27:12;3.28;;;1.10;;
76320;SDS011;65132;52.088;5.402;2022-12-29T02:29:56;2.33;;;0.85;;
76320;SDS011;65132;52.088;5.402;2022-12-29T02:35:06;2.97;;;0.85;;
76320;SDS011;65132;52.088;5.402;2022-12-29T02:37:54;2.88;;;0.60;;
76320;SDS011;65132;52.088;5.402;2022-12-29T02:40:42;2.67;;;0.70;;
76320;SDS011;65132;52.088;5.402;2022-12-29T02:43:24;1.90;;;0.70;;
76320;SDS011;65132;52.088;5.402;2022-12-29T02:45:58;1.40;;;0.57;;
76320;SDS011;65132;52.088;5.402;2022-12-29T02:48:36;1.42;;;0.32;;
76320;SDS011;65132;52.088;5.402;2022-12-29T02:51:08;2.25;;;0.35;;
76320;SDS011;65132;52.088;5.402;2022-12-29T02:53:47;3.95;;;0.52;;
76320;SDS011;65132;52.088;5.402;2022-12-29T02:56:14;1.35;;;0.32;;
76320;SDS011;65132;52.088;5.402;2022-12-29T02:58:40;1.30;;;0.50;;
76320;SDS011;65132;52.088;5.402;2022-12-29T03:01:17;2.42;;;0.60;;
76320;SDS011;65132;52.088;5.402;2022-12-29T03:06:57;2.40;;;0.63;;
76320;SDS011;65132;52.088;5.402;2022-12-29T03:09:43;2.28;;;0.60;;
76320;SDS011;65132;52.088;5.402;2022-12-29T03:15:25;1.90;;;0.52;;
76320;SDS011;65132;52.088;5.402;2022-12-29T03:17:58;1.60;;;0.55;;
76320;SDS011;65132;52.088;5.402;2022-12-29T03:20:35;2.13;;;0.52;;
76320;SDS011;65132;52.088;5.402;2022-12-29T03:23:17;1.75;;;0.57;;
76320;SDS011;65132;52.088;5.402;2022-12-29T03:25:48;3.65;;;0.70;;
76320;SDS011;65132;52.088;5.402;2022-12-29T03:28:21;1.50;;;0.73;;
76320;SDS011;65132;52.088;5.402;2022-12-29T03:30:51;3.05;;;0.52;;
76320;SDS011;65132;52.088;5.402;2022-12-29T03:33:19;1.55;;;0.60;;
76320;SDS011;65132;52.088;5.402;2022-12-29T03:35:49;2.15;;;0.65;;
76320;SDS011;65132;52.088;5.402;2022-12-29T03:38:24;2.55;;;0.60;;
76320;SDS011;65132;52.088;5.402;2022-12-29T03:40:58;1.88;;;1.05;;
76320;SDS011;65132;52.088;5.402;2022-12-29T03:43:28;2.97;;;1.15;;
76320;SDS011;65132;52.088;5.402;2022-12-29T03:45:55;3.55;;;1.10;;
76320;SDS011;65132;52.088;5.402;2022-12-29T03:48:22;4.28;;;1.00;;
76320;SDS011;65132;52.088;5.402;2022-12-29T03:50:48;2.05;;;0.80;;
76320;SDS011;65132;52.088;5.402;2022-12-29T03:53:14;2.22;;;0.95;;
76320;SDS011;65132;52.088;5.402;2022-12-29T03:55:41;2.33;;;0.90;;
76320;SDS011;65132;52.088;5.402;2022-12-29T03:58:08;1.83;;;0.55;;
76320;SDS011;65132;52.088;5.402;2022-12-29T04:00:34;4.30;;;0.80;;
76320;SDS011;65132;52.088;5.402;2022-12-29T04:03:00;2.88;;;0.80;;
76320;SDS011;65132;52.088;5.402;2022-12-29T04:05:27;2.90;;;1.00;;
76320;SDS011;65132;52.088;5.402;2022-12-29T04:07:53;2.05;;;0.70;;
76320;SDS011;65132;52.088;5.402;2022-12-29T04:10:20;2.88;;;0.60;;
76320;SDS011;65132;52.088;5.402;2022-12-29T04:12:46;4.50;;;0.80;;
76320;SDS011;65132;52.088;5.402;2022-12-29T04:15:13;3.42;;;1.10;;
76320;SDS011;65132;52.088;5.402;2022-12-29T04:17:39;3.40;;;0.70;;
76320;SDS011;65132;52.088;5.402;2022-12-29T04:20:06;1.77;;;0.80;;
76320;SDS011;65132;52.088;5.402;2022-12-29T04:22:33;3.00;;;1.17;;
76320;SDS011;65132;52.088;5.402;2022-12-29T04:24:59;4.07;;;0.95;;
76320;SDS011;65132;52.088;5.402;2022-12-29T04:27:25;3.05;;;0.90;;
76320;SDS011;65132;52.088;5.402;2022-12-29T04:29:52;3.97;;;0.52;;
76320;SDS011;65132;52.088;5.402;2022-12-29T04:32:18;5.20;;;0.60;;
76320;SDS011;65132;52.088;5.402;2022-12-29T04:34:44;3.80;;;0.70;;
76320;SDS011;65132;52.088;5.402;2022-12-29T04:37:11;2.72;;;0.60;;
76320;SDS011;65132;52.088;5.402;2022-12-29T04:39:37;2.25;;;0.28;;
76320;SDS011;65132;52.088;5.402;2022-12-29T04:42:04;2.78;;;0.50;;
76320;SDS011;65132;52.088;5.402;2022-12-29T04:44:30;5.75;;;0.40;;
76320;SDS011;65132;52.088;5.402;2022-12-29T04:46:56;4.60;;;0.57;;
76320;SDS011;65132;52.088;5.402;2022-12-29T04:49:23;1.67;;;0.65;;
76320;SDS011;65132;52.088;5.402;2022-12-29T04:51:49;5.18;;;0.63;;
76320;SDS011;65132;52.088;5.402;2022-12-29T04:54:15;3.40;;;0.80;;
76320;SDS011;65132;52.088;5.402;2022-12-29T04:56:42;4.78;;;0.60;;
76320;SDS011;65132;52.088;5.402;2022-12-29T04:59:08;7.50;;;0.98;;
76320;SDS011;65132;52.088;5.402;2022-12-29T05:01:35;4.97;;;0.32;;
76320;SDS011;65132;52.088;5.402;2022-12-29T05:04:01;5.60;;;0.88;;
76320;SDS011;65132;52.088;5.402;2022-12-29T05:06:28;6.15;;;0.30;;
76320;SDS011;65132;52.088;5.402;2022-12-29T05:08:54;4.50;;;0.70;;
76320;SDS011;65132;52.088;5.402;2022-12-29T05:11:20;6.38;;;0.80;;
76320;SDS011;65132;52.088;5.402;2022-12-29T05:13:47;5.85;;;0.60;;
76320;SDS011;65132;52.088;5.402;2022-12-29T05:16:13;4.38;;;0.38;;
76320;SDS011;65132;52.088;5.402;2022-12-29T05:18:40;9.75;;;0.63;;
76320;SDS011;65132;52.088;5.402;2022-12-29T05:21:06;12.02;;;1.38;;
76320;SDS011;65132;52.088;5.402;2022-12-29T05:23:32;3.70;;;0.68;;
76320;SDS011;65132;52.088;5.402;2022-12-29T05:25:59;4.63;;;0.80;;
76320;SDS011;65132;52.088;5.402;2022-12-29T05:28:25;5.95;;;0.70;;
76320;SDS011;65132;52.088;5.402;2022-12-29T05:30:51;5.45;;;1.00;;
76320;SDS011;65132;52.088;5.402;2022-12-29T05:33:18;5.53;;;0.95;;
76320;SDS011;65132;52.088;5.402;2022-12-29T05:35:45;4.22;;;0.50;;
76320;SDS011;65132;52.088;5.402;2022-12-29T05:38:12;4.88;;;0.47;;
76320;SDS011;65132;52.088;5.402;2022-12-29T05:40:38;3.83;;;0.47;;
76320;SDS011;65132;52.088;5.402;2022-12-29T05:43:05;8.52;;;1.08;;
76320;SDS011;65132;52.088;5.402;2022-12-29T05:45:31;4.88;;;0.40;;
76320;SDS011;65132;52.088;5.402;2022-12-29T05:47:57;7.55;;;0.43;;
76320;SDS011;65132;52.088;5.402;2022-12-29T05:50:24;4.28;;;0.55;;
76320;SDS011;65132;52.088;5.402;2022-12-29T05:52:50;4.47;;;0.60;;
76320;SDS011;65132;52.088;5.402;2022-12-29T05:55:16;3.83;;;0.60;;
76320;SDS011;65132;52.088;5.402;2022-12-29T05:57:43;3.15;;;0.85;;
76320;SDS011;65132;52.088;5.402;2022-12-29T06:00:10;4.18;;;0.90;;
76320;SDS011;65132;52.088;5.402;2022-12-29T06:02:37;3.35;;;0.45;;
76320;SDS011;65132;52.088;5.402;2022-12-29T06:05:03;6.68;;;0.60;;
76320;SDS011;65132;52.088;5.402;2022-12-29T06:07:30;5.32;;;0.85;;
76320;SDS011;65132;52.088;5.402;2022-12-29T06:09:56;3.95;;;0.80;;
76320;SDS011;65132;52.088;5.402;2022-12-29T06:12:23;8.32;;;0.75;;
76320;SDS011;65132;52.088;5.402;2022-12-29T06:14:49;6.60;;;0.85;;
76320;SDS011;65132;52.088;5.402;2022-12-29T06:17:15;6.22;;;0.80;;
76320;SDS011;65132;52.088;5.402;2022-12-29T06:19:42;4.90;;;0.95;;
76320;SDS011;65132;52.088;5.402;2022-12-29T06:22:08;6.72;;;0.50;;
76320;SDS011;65132;52.088;5.402;2022-12-29T06:24:35;5.60;;;0.98;;
76320;SDS011;65132;52.088;5.402;2022-12-29T06:27:01;5.95;;;0.80;;
76320;SDS011;65132;52.088;5.402;2022-12-29T06:29:28;6.00;;;0.93;;
76320;SDS011;65132;52.088;5.402;2022-12-29T06:31:54;5.93;;;0.50;;
76320;SDS011;65132;52.088;5.402;2022-12-29T06:34:20;3.95;;;0.73;;
76320;SDS011;65132;52.088;5.402;2022-12-29T06:36:47;5.75;;;0.77;;
76320;SDS011;65132;52.088;5.402;2022-12-29T06:39:13;7.38;;;0.57;;
76320;SDS011;65132;52.088;5.402;2022-12-29T06:41:42;3.10;;;0.82;;
76320;SDS011;65132;52.088;5.402;2022-12-29T06:44:08;4.47;;;0.60;;
76320;SDS011;65132;52.088;5.402;2022-12-29T06:46:35;5.95;;;0.55;;
76320;SDS011;65132;52.088;5.402;2022-12-29T06:49:01;6.70;;;0.77;;
76320;SDS011;65132;52.088;5.402;2022-12-29T06:51:28;7.22;;;1.15;;
76320;SDS011;65132;52.088;5.402;2022-12-29T06:53:54;6.57;;;0.85;;
76320;SDS011;65132;52.088;5.402;2022-12-29T06:56:20;5.72;;;1.23;;
76320;SDS011;65132;52.088;5.402;2022-12-29T06:58:47;3.88;;;1.23;;
76320;SDS011;65132;52.088;5.402;2022-12-29T07:01:13;4.13;;;0.82;;
76320;SDS011;65132;52.088;5.402;2022-12-29T07:03:41;6.40;;;1.10;;
76320;SDS011;65132;52.088;5.402;2022-12-29T07:06:07;3.42;;;0.45;;
76320;SDS011;65132;52.088;5.402;2022-12-29T07:08:34;4.75;;;2.05;;
76320;SDS011;65132;52.088;5.402;2022-12-29T07:11:01;8.65;;;0.80;;
76320;SDS011;65132;52.088;5.402;2022-12-29T07:13:28;5.38;;;0.55;;
76320;SDS011;65132;52.088;5.402;2022-12-29T07:15:54;4.68;;;0.63;;
76320;SDS011;65132;52.088;5.402;2022-12-29T07:18:20;4.60;;;0.73;;
76320;SDS011;65132;52.088;5.402;2022-12-29T07:20:47;6.65;;;0.70;;
76320;SDS011;65132;52.088;5.402;2022-12-29T07:23:13;6.13;;;1.10;;
76320;SDS011;65132;52.088;5.402;2022-12-29T07:25:39;4.30;;;0.55;;
76320;SDS011;65132;52.088;5.402;2022-12-29T07:28:06;5.25;;;0.60;;
76320;SDS011;65132;52.088;5.402;2022-12-29T07:30:33;4.45;;;0.45;;
76320;SDS011;65132;52.088;5.402;2022-12-29T07:32:59;4.10;;;1.10;;
76320;SDS011;65132;52.088;5.402;2022-12-29T07:35:25;2.08;;;0.55;;
76320;SDS011;65132;52.088;5.402;2022-12-29T07:37:52;4.75;;;0.50;;
76320;SDS011;65132;52.088;5.402;2022-12-29T07:40:18;6.70;;;0.75;;
76320;SDS011;65132;52.088;5.402;2022-12-29T07:42:44;6.60;;;1.02;;
76320;SDS011;65132;52.088;5.402;2022-12-29T07:45:11;5.50;;;1.00;;
76320;SDS011;65132;52.088;5.402;2022-12-29T07:47:37;3.78;;;0.60;;
76320;SDS011;65132;52.088;5.402;2022-12-29T07:50:04;8.70;;;1.15;;
76320;SDS011;65132;52.088;5.402;2022-12-29T07:52:31;6.93;;;1.27;;
76320;SDS011;65132;52.088;5.402;2022-12-29T07:54:57;4.78;;;0.80;;
76320;SDS011;65132;52.088;5.402;2022-12-29T07:57:23;4.22;;;1.02;;
76320;SDS011;65132;52.088;5.402;2022-12-29T07:59:57;5.20;;;0.77;;
76320;SDS011;65132;52.088;5.402;2022-12-29T08:02:23;4.80;;;1.27;;
76320;SDS011;65132;52.088;5.402;2022-12-29T08:04:50;5.07;;;0.82;;
76320;SDS011;65132;52.088;5.402;2022-12-29T08:07:16;5.60;;;1.25;;
76320;SDS011;65132;52.088;5.402;2022-12-29T08:09:43;10.70;;;1.75;;
76320;SDS011;65132;52.088;5.402;2022-12-29T08:12:12;8.10;;;1.25;;
76320;SDS011;65132;52.088;5.402;2022-12-29T08:14:39;6.25;;;1.88;;
76320;SDS011;65132;52.088;5.402;2022-12-29T08:17:05;3.63;;;0.80;;
76320;SDS011;65132;52.088;5.402;2022-12-29T08:19:31;5.97;;;1.00;;
76320;SDS011;65132;52.088;5.402;2022-12-29T08:21:58;9.02;;;1.00;;
76320;SDS011;65132;52.088;5.402;2022-12-29T08:24:24;8.27;;;1.02;;
76320;SDS011;65132;52.088;5.402;2022-12-29T08:26:51;6.40;;;1.05;;
76320;SDS011;65132;52.088;5.402;2022-12-29T08:29:18;8.77;;;0.90;;
76320;SDS011;65132;52.088;5.402;2022-12-29T08:31:44;5.30;;;1.10;;
76320;SDS011;65132;52.088;5.402;2022-12-29T08:34:11;8.02;;;0.93;;
76320;SDS011;65132;52.088;5.402;2022-12-29T08:36:38;5.82;;;0.80;;
76320;SDS011;65132;52.088;5.402;2022-12-29T08:39:04;6.72;;;1.20;;
76320;SDS011;65132;52.088;5.402;2022-12-29T08:41:31;8.45;;;0.70;;
76320;SDS011;65132;52.088;5.402;2022-12-29T08:43:57;5.20;;;0.82;;
76320;SDS011;65132;52.088;5.402;2022-12-29T08:46:23;7.43;;;0.95;;
76320;SDS011;65132;52.088;5.402;2022-12-29T08:48:50;8.13;;;1.65;;
76320;SDS011;65132;52.088;5.402;2022-12-29T08:51:17;7.85;;;1.10;;
76320;SDS011;65132;52.088;5.402;2022-12-29T08:53:50;4.65;;;1.20;;
76320;SDS011;65132;52.088;5.402;2022-12-29T08:56:16;6.50;;;1.00;;
76320;SDS011;65132;52.088;5.402;2022-12-29T08:58:42;9.10;;;0.85;;
76320;SDS011;65132;52.088;5.402;2022-12-29T09:01:09;4.00;;;0.85;;
76320;SDS011;65132;52.088;5.402;2022-12-29T09:03:36;8.55;;;1.08;;
76320;SDS011;65132;52.088;5.402;2022-12-29T09:06:22;7.65;;;1.33;;
76320;SDS011;65132;52.088;5.402;2022-12-29T09:08:48;5.95;;;1.05;;
76320;SDS011;65132;52.088;5.402;2022-12-29T09:11:19;7.05;;;1.13;;
76320;SDS011;65132;52.088;5.402;2022-12-29T09:13:48;6.22;;;0.70;;
76320;SDS011;65132;52.088;5.402;2022-12-29T09:16:15;6.18;;;0.90;;
76320;SDS011;65132;52.088;5.402;2022-12-29T09:18:43;6.75;;;1.10;;
76320;SDS011;65132;52.088;5.402;2022-12-29T09:21:10;8.15;;;0.60;;
76320;SDS011;65132;52.088;5.402;2022-12-29T09:23:38;3.67;;;0.52;;
76320;SDS011;65132;52.088;5.402;2022-12-29T09:26:05;7.13;;;1.30;;
76320;SDS011;65132;52.088;5.402;2022-12-29T09:28:31;5.38;;;1.00;;
76320;SDS011;65132;52.088;5.402;2022-12-29T09:30:58;7.50;;;1.35;;
76320;SDS011;65132;52.088;5.402;2022-12-29T09:33:25;4.07;;;0.50;;
76320;SDS011;65132;52.088;5.402;2022-12-29T09:35:55;4.50;;;0.93;;
76320;SDS011;65132;52.088;5.402;2022-12-29T09:38:24;4.10;;;1.00;;
76320;SDS011;65132;52.088;5.402;2022-12-29T09:40:52;7.20;;;0.70;;
76320;SDS011;65132;52.088;5.402;2022-12-29T09:46:27;5.72;;;1.00;;
76320;SDS011;65132;52.088;5.402;2022-12-29T09:51:52;6.97;;;0.82;;
76320;SDS011;65132;52.088;5.402;2022-12-29T09:54:34;7.95;;;1.33;;
76320;SDS011;65132;52.088;5.402;2022-12-29T10:00:21;5.25;;;1.15;;
76320;SDS011;65132;52.088;5.402;2022-12-29T10:02:51;6.50;;;0.85;;
76320;SDS011;65132;52.088;5.402;2022-12-29T10:05:27;4.28;;;1.15;;
76320;SDS011;65132;52.088;5.402;2022-12-29T10:07:58;5.32;;;0.77;;
76320;SDS011;65132;52.088;5.402;2022-12-29T10:10:50;5.95;;;1.15;;
76320;SDS011;65132;52.088;5.402;2022-12-29T10:13:37;6.53;;;1.20;;
76320;SDS011;65132;52.088;5.402;2022-12-29T10:24:25;7.90;;;2.10;;
76320;SDS011;65132;52.088;5.402;2022-12-29T10:26:55;8.02;;;1.13;;
76320;SDS011;65132;52.088;5.402;2022-12-29T10:29:33;7.25;;;0.95;;
76320;SDS011;65132;52.088;5.402;2022-12-29T10:32:06;4.68;;;1.02;;
76320;SDS011;65132;52.088;5.402;2022-12-29T10:34:47;7.63;;;0.95;;
76320;SDS011;65132;52.088;5.402;2022-12-29T10:39:48;4.60;;;1.02;;
76320;SDS011;65132;52.088;5.402;2022-12-29T10:42:36;5.10;;;1.23;;
76320;SDS011;65132;52.088;5.402;2022-12-29T10:45:13;7.53;;;0.90;;
76320;SDS011;65132;52.088;5.402;2022-12-29T10:47:50;5.35;;;1.15;;
76320;SDS011;65132;52.088;5.402;2022-12-29T10:50:19;7.30;;;1.63;;
76320;SDS011;65132;52.088;5.402;2022-12-29T10:52:46;6.35;;;1.25;;
76320;SDS011;65132;52.088;5.402;2022-12-29T10:55:21;7.90;;;1.77;;
76320;SDS011;65132;52.088;5.402;2022-12-29T10:57:52;8.13;;;2.00;;
76320;SDS011;65132;52.088;5.402;2022-12-29T11:00:19;8.55;;;1.70;;
76320;SDS011;65132;52.088;5.402;2022-12-29T11:08:30;10.93;;;3.58;;
76320;SDS011;65132;52.088;5.402;2022-12-29T11:11:02;8.63;;;2.17;;
76320;SDS011;65132;52.088;5.402;2022-12-29T11:13:31;6.97;;;1.45;;
76320;SDS011;65132;52.088;5.402;2022-12-29T11:16:04;8.45;;;2.28;;
76320;SDS011;65132;52.088;5.402;2022-12-29T11:21:03;7.75;;;1.65;;
76320;SDS011;65132;52.088;5.402;2022-12-29T11:23:39;5.05;;;1.02;;
76320;SDS011;65132;52.088;5.402;2022-12-29T11:28:37;10.00;;;1.60;;
76320;SDS011;65132;52.088;5.402;2022-12-29T11:31:04;13.68;;;1.95;;
76320;SDS011;65132;52.088;5.402;2022-12-29T11:33:32;7.93;;;1.65;;
76320;SDS011;65132;52.088;5.402;2022-12-29T11:36:02;9.32;;;2.00;;
76320;SDS011;65132;52.088;5.402;2022-12-29T11:38:36;10.82;;;2.22;;
76320;SDS011;65132;52.088;5.402;2022-12-29T11:41:05;6.20;;;1.90;;
76320;SDS011;65132;52.088;5.402;2022-12-29T11:43:40;11.80;;;2.00;;
76320;SDS011;65132;52.088;5.402;2022-12-29T11:46:26;10.18;;;1.20;;
76320;SDS011;65132;52.088;5.402;2022-12-29T11:48:56;5.20;;;0.60;;
76320;SDS011;65132;52.088;5.402;2022-12-29T11:51:28;8.55;;;1.42;;
76320;SDS011;65132;52.088;5.402;2022-12-29T11:53:59;7.80;;;1.58;;
76320;SDS011;65132;52.088;5.402;2022-12-29T11:56:33;6.05;;;1.17;;
76320;SDS011;65132;52.088;5.402;2022-12-29T11:59:52;7.95;;;1.02;;
76320;SDS011;65132;52.088;5.402;2022-12-29T12:01:53;7.55;;;1.30;;
76320;SDS011;65132;52.088;5.402;2022-12-29T12:04:30;8.52;;;1.20;;
76320;SDS011;65132;52.088;5.402;2022-12-29T12:09:35;6.50;;;1.08;;
76320;SDS011;65132;52.088;5.402;2022-12-29T12:12:07;5.18;;;1.48;;
76320;SDS011;65132;52.088;5.402;2022-12-29T12:14:46;6.13;;;0.90;;
76320;SDS011;65132;52.088;5.402;2022-12-29T12:17:30;12.23;;;1.95;;
76320;SDS011;65132;52.088;5.402;2022-12-29T12:20:04;8.80;;;1.48;;
76320;SDS011;65132;52.088;5.402;2022-12-29T12:22:46;8.00;;;2.15;;
76320;SDS011;65132;52.088;5.402;2022-12-29T12:25:34;14.48;;;1.83;;
76320;SDS011;65132;52.088;5.402;2022-12-29T12:31:17;20.48;;;2.88;;
76320;SDS011;65132;52.088;5.402;2022-12-29T12:33:53;8.95;;;1.52;;
76320;SDS011;65132;52.088;5.402;2022-12-29T12:54:59;10.82;;;1.42;;
76320;SDS011;65132;52.088;5.402;2022-12-29T12:57:16;8.13;;;1.20;;
76320;SDS011;65132;52.088;5.402;2022-12-29T13:00:11;13.18;;;1.83;;
76320;SDS011;65132;52.088;5.402;2022-12-29T13:05:41;12.88;;;1.42;;
76320;SDS011;65132;52.088;5.402;2022-12-29T13:11:11;10.38;;;2.03;;
76320;SDS011;65132;52.088;5.402;2022-12-29T13:14:10;7.30;;;1.33;;
76320;SDS011;65132;52.088;5.402;2022-12-29T13:17:08;6.88;;;1.60;;
76320;SDS011;65132;52.088;5.402;2022-12-29T13:19:48;9.35;;;2.35;;
76320;SDS011;65132;52.088;5.402;2022-12-29T13:22:26;8.25;;;1.63;;
76320;SDS011;65132;52.088;5.402;2022-12-29T13:27:56;8.75;;;1.80;;
76320;SDS011;65132;52.088;5.402;2022-12-29T13:30:59;11.25;;;2.15;;
76320;SDS011;65132;52.088;5.402;2022-12-29T13:36:09;10.38;;;1.60;;
76320;SDS011;65132;52.088;5.402;2022-12-29T13:38:46;10.82;;;2.00;;
76320;SDS011;65132;52.088;5.402;2022-12-29T13:43:55;7.40;;;2.00;;
76320;SDS011;65132;52.088;5.402;2022-12-29T13:46:28;8.43;;;1.90;;
76320;SDS011;65132;52.088;5.402;2022-12-29T13:49:01;10.88;;;1.90;;
76320;SDS011;65132;52.088;5.402;2022-12-29T13:51:31;9.05;;;2.05;;
76320;SDS011;65132;52.088;5.402;2022-12-29T13:54:10;9.32;;;1.60;;
76320;SDS011;65132;52.088;5.402;2022-12-29T13:56:48;6.65;;;1.63;;
76320;SDS011;65132;52.088;5.402;2022-12-29T13:59:48;11.32;;;1.25;;
76320;SDS011;65132;52.088;5.402;2022-12-29T14:04:58;8.45;;;1.73;;
76320;SDS011;65132;52.088;5.402;2022-12-29T14:07:26;9.32;;;1.33;;
76320;SDS011;65132;52.088;5.402;2022-12-29T14:09:55;8.77;;;1.02;;
76320;SDS011;65132;52.088;5.402;2022-12-29T14:12:27;4.43;;;1.15;;
76320;SDS011;65132;52.088;5.402;2022-12-29T14:15:13;7.32;;;1.25;;
76320;SDS011;65132;52.088;5.402;2022-12-29T14:17:59;6.00;;;1.27;;
76320;SDS011;65132;52.088;5.402;2022-12-29T14:20:28;4.55;;;0.80;;
76320;SDS011;65132;52.088;5.402;2022-12-29T14:23:00;4.80;;;0.70;;
76320;SDS011;65132;52.088;5.402;2022-12-29T14:28:46;3.53;;;0.60;;
76320;SDS011;65132;52.088;5.402;2022-12-29T14:33:40;4.28;;;0.50;;
76320;SDS011;65132;52.088;5.402;2022-12-29T14:36:37;2.40;;;0.47;;
76320;SDS011;65132;52.088;5.402;2022-12-29T14:44:50;4.40;;;0.38;;
76320;SDS011;65132;52.088;5.402;2022-12-29T14:49:56;3.55;;;0.80;;
76320;SDS011;65132;52.088;5.402;2022-12-29T14:52:31;4.82;;;0.98;;
76320;SDS011;65132;52.088;5.402;2022-12-29T14:54:59;6.13;;;0.70;;
76320;SDS011;65132;52.088;5.402;2022-12-29T14:57:59;3.22;;;0.57;;
76320;SDS011;65132;52.088;5.402;2022-12-29T15:00:32;5.28;;;1.00;;
76320;SDS011;65132;52.088;5.402;2022-12-29T15:03:10;2.60;;;0.70;;
76320;SDS011;65132;52.088;5.402;2022-12-29T15:08:19;5.68;;;0.63;;
76320;SDS011;65132;52.088;5.402;2022-12-29T15:10:51;2.40;;;0.80;;
76320;SDS011;65132;52.088;5.402;2022-12-29T15:13:23;5.18;;;1.35;;
76320;SDS011;65132;52.088;5.402;2022-12-29T15:15:50;4.35;;;1.00;;
76320;SDS011;65132;52.088;5.402;2022-12-29T15:18:28;5.60;;;0.80;;
76320;SDS011;65132;52.088;5.402;2022-12-29T15:21:00;3.03;;;0.52;;
76320;SDS011;65132;52.088;5.402;2022-12-29T15:23:29;6.43;;;0.80;;
76320;SDS011;65132;52.088;5.402;2022-12-29T15:25:58;5.15;;;0.82;;
76320;SDS011;65132;52.088;5.402;2022-12-29T15:28:26;4.25;;;0.80;;
76320;SDS011;65132;52.088;5.402;2022-12-29T15:30:55;8.35;;;1.25;;
76320;SDS011;65132;52.088;5.402;2022-12-29T15:33:23;8.00;;;1.33;;
76320;SDS011;65132;52.088;5.402;2022-12-29T15:35:53;10.43;;;1.88;;
76320;SDS011;65132;52.088;5.402;2022-12-29T15:38:22;4.38;;;1.52;;
76320;SDS011;65132;52.088;5.402;2022-12-29T15:46:30;8.18;;;1.80;;
76320;SDS011;65132;52.088;5.402;2022-12-29T15:48:57;7.65;;;1.42;;
76320;SDS011;65132;52.088;5.402;2022-12-29T15:51:32;4.25;;;1.48;;
76320;SDS011;65132;52.088;5.402;2022-12-29T15:54:01;7.93;;;1.02;;
76320;SDS011;65132;52.088;5.402;2022-12-29T15:56:29;7.07;;;1.45;;
76320;SDS011;65132;52.088;5.402;2022-12-29T15:58:57;7.03;;;1.70;;
76320;SDS011;65132;52.088;5.402;2022-12-29T16:01:33;4.85;;;0.65;;
76320;SDS011;65132;52.088;5.402;2022-12-29T16:04:08;9.13;;;1.17;;
76320;SDS011;65132;52.088;5.402;2022-12-29T16:06:36;3.72;;;1.10;;
76320;SDS011;65132;52.088;5.402;2022-12-29T16:09:06;5.32;;;0.88;;
76320;SDS011;65132;52.088;5.402;2022-12-29T16:11:40;5.65;;;0.90;;
76320;SDS011;65132;52.088;5.402;2022-12-29T16:14:40;4.07;;;0.90;;
76320;SDS011;65132;52.088;5.402;2022-12-29T16:17:11;6.68;;;0.98;;
76320;SDS011;65132;52.088;5.402;2022-12-29T16:19:39;5.22;;;1.55;;
76320;SDS011;65132;52.088;5.402;2022-12-29T16:22:10;6.18;;;0.80;;
76320;SDS011;65132;52.088;5.402;2022-12-29T16:24:41;6.00;;;0.60;;
76320;SDS011;65132;52.088;5.402;2022-12-29T16:27:42;5.57;;;0.70;;
76320;SDS011;65132;52.088;5.402;2022-12-29T16:30:07;5.20;;;0.73;;
76320;SDS011;65132;52.088;5.402;2022-12-29T16:32:54;2.95;;;0.60;;
76320;SDS011;65132;52.088;5.402;2022-12-29T16:35:26;2.50;;;0.80;;
76320;SDS011;65132;52.088;5.402;2022-12-29T16:40:55;3.22;;;0.70;;
76320;SDS011;65132;52.088;5.402;2022-12-29T16:43:27;4.22;;;0.68;;
76320;SDS011;65132;52.088;5.402;2022-12-29T16:51:03;5.53;;;0.85;;
76320;SDS011;65132;52.088;5.402;2022-12-29T16:53:38;4.68;;;0.60;;
76320;SDS011;65132;52.088;5.402;2022-12-29T16:56:14;5.35;;;0.70;;
76320;SDS011;65132;52.088;5.402;2022-12-29T16:58:57;4.78;;;0.40;;
76320;SDS011;65132;52.088;5.402;2022-12-29T17:01:30;2.70;;;0.52;;
76320;SDS011;65132;52.088;5.402;2022-12-29T17:03:58;2.70;;;0.20;;
76320;SDS011;65132;52.088;5.402;2022-12-29T17:06:31;5.22;;;1.05;;
76320;SDS011;65132;52.088;5.402;2022-12-29T17:08:57;6.43;;;0.40;;
76320;SDS011;65132;52.088;5.402;2022-12-29T17:13:53;3.30;;;0.30;;